Dieppe, Canada
Current Conditions -  °F | °C
As of 4:00 AM on Saturday 01 Nov 2014 (Local Time) from CYQM Reporting Station
Overcast Overcast  
Wind Chill: 35°   Ceiling: 4800
Heat Index: 39°   Visibility: 15mi
Dew Point: 34°   Wind: 6mph
Humidity: 81%   Direction: 40°NE
Pressure: 30.09"   Gusts: NA
Location:  46.1°N, 64.75°W
Report Text: CYQM 010700Z 04005KT 15SM OVC048 04/01 A3009 RMK SC8 SLP191
Loading
Personal Weather Stations






























Interactive Weather Map
Tropical Storm Tracking
New forecast layout! Learn more

10-Day Weather Forecast

Advertisements
Track Severe Weather on mobile